createdAt,value
2019-04-30T00:00:11.176Z,96674.03
2019-04-30T00:02:52.137Z,96669.69
2019-04-30T00:05:25.100Z,96670.82
2019-04-30T00:07:58.720Z,96669.33
2019-04-30T00:10:39.570Z,96672.05
2019-04-30T00:13:06.011Z,96672.14
2019-04-30T00:15:38.449Z,96671.61
2019-04-30T00:18:11.745Z,96670.84
2019-04-30T00:20:45.271Z,96669.22
2019-04-30T00:23:22.402Z,96668.66
2019-04-30T00:25:51.320Z,96675.36
2019-04-30T00:28:23.104Z,96674.66
2019-04-30T00:30:56.236Z,96671.11
2019-04-30T00:33:29.384Z,96671.44
2019-04-30T00:36:01.186Z,96672.53
2019-04-30T00:38:34.357Z,96672.32
2019-04-30T00:41:10.047Z,96673.15
2019-04-30T00:43:46.558Z,96664.06
2019-04-30T00:46:17.288Z,96664.06
2019-04-30T00:48:48.219Z,96664.72
2019-04-30T00:51:21.277Z,96660.82
2019-04-30T00:53:55.844Z,96661.50
2019-04-30T00:56:28.625Z,96660.20
2019-04-30T00:59:02.412Z,96662.27
2019-04-30T01:01:52.874Z,96657.45
2019-04-30T01:04:35.145Z,96655.01
2019-04-30T01:07:08.568Z,96649.77
2019-04-30T01:09:46.447Z,96648.31
2019-04-30T01:12:19.141Z,96647.17
2019-04-30T01:14:49.780Z,96647.75
2019-04-30T01:17:21.690Z,96644.42
2019-04-30T01:19:54.694Z,96642.56
2019-04-30T01:22:31.154Z,96642.56
2019-04-30T01:25:08.039Z,96643.27
2019-04-30T01:27:34.293Z,96637.94
2019-04-30T01:30:08.579Z,96632.42
2019-04-30T01:32:40.430Z,96629.53
2019-04-30T01:35:12.461Z,96624.97
2019-04-30T01:37:44.342Z,96625.70
2019-04-30T01:40:19.346Z,96626.11
2019-04-30T01:42:51.976Z,96626.38
2019-04-30T01:45:28.186Z,96619.63
2019-04-30T01:48:00.674Z,96612.31
2019-04-30T01:50:33.710Z,96612.55
2019-04-30T01:53:04.750Z,96609.16
2019-04-30T01:55:54.837Z,96612.38
2019-04-30T01:58:40.094Z,96607.07
2019-04-30T02:01:16.748Z,96605.21
2019-04-30T02:03:48.755Z,96608.58
2019-04-30T02:06:21.122Z,96601.97
2019-04-30T02:08:52.879Z,96610.84
2019-04-30T02:11:24.529Z,96603.30
2019-04-30T02:13:56.372Z,96603.80
2019-04-30T02:16:28.975Z,96605.56
2019-04-30T02:19:00.990Z,96609.16
2019-04-30T02:21:35.076Z,96602.35
2019-04-30T02:24:08.998Z,96601.50
2019-04-30T02:26:42.170Z,96604.83
2019-04-30T02:29:13.940Z,96604.41
2019-04-30T02:31:46.587Z,96603.47
2019-04-30T02:34:30.258Z,96601.87
2019-04-30T02:37:14.276Z,96603.64
2019-04-30T02:39:46.064Z,96600.52
2019-04-30T02:42:20.127Z,96596.75
2019-04-30T02:44:53.882Z,96589.06
2019-04-30T02:47:30.274Z,96586.75
2019-04-30T02:50:15.521Z,96589.23
2019-04-30T02:52:40.315Z,96582.45
2019-04-30T02:55:16.043Z,96581.78
2019-04-30T02:57:49.831Z,96583.81
2019-04-30T03:00:21.147Z,96575.41
2019-04-30T03:02:52.887Z,96570.58
2019-04-30T03:05:24.654Z,96571.28
2019-04-30T03:07:59.953Z,96573.41
2019-04-30T03:10:31.394Z,96574.55
2019-04-30T03:13:03.092Z,96578.86
2019-04-30T03:15:34.976Z,96581.69
2019-04-30T03:18:16.512Z,96589.88
2019-04-30T03:21:11.892Z,96598.43
2019-04-30T03:23:43.695Z,96599.16
2019-04-30T03:26:15.544Z,96597.40
2019-04-30T03:28:49.200Z,96595.75
2019-04-30T03:31:22.525Z,96602.59
2019-04-30T03:33:54.181Z,96595.75
2019-04-30T03:36:25.976Z,96593.66
2019-04-30T03:39:00.027Z,96590.44
2019-04-30T03:41:33.451Z,96586.57
2019-04-30T03:44:21.064Z,96584.45
2019-04-30T03:46:40.820Z,96582.33
2019-04-30T03:49:14.391Z,96577.63
2019-04-30T03:51:46.626Z,96576.17
2019-04-30T03:54:19.300Z,96571.31
2019-04-30T03:56:52.849Z,96572.97
2019-04-30T03:59:24.618Z,96574.58
2019-04-30T04:02:03.650Z,96575.72
2019-04-30T04:04:43.016Z,96580.60
2019-04-30T04:07:36.278Z,96578.81
2019-04-30T04:10:19.560Z,96582.81
2019-04-30T04:12:51.557Z,96587.52
2019-04-30T04:15:23.353Z,96583.36
2019-04-30T04:17:56.532Z,96589.55
2019-04-30T04:20:29.851Z,96590.41
2019-04-30T04:23:01.571Z,96589.80
2019-04-30T04:25:33.488Z,96589.46
2019-04-30T04:28:05.311Z,96587.97
2019-04-30T04:30:42.889Z,96591.27
2019-04-30T04:33:15.975Z,96600.64
2019-04-30T04:35:49.833Z,96593.23
2019-04-30T04:38:21.581Z,96589.44
2019-04-30T04:40:55.487Z,96590.45
2019-04-30T04:43:29.892Z,96589.70
2019-04-30T04:46:03.992Z,96586.30
2019-04-30T04:48:36.035Z,96584.75
2019-04-30T04:51:19.810Z,96576.66
2019-04-30T04:53:41.282Z,96574.28
2019-04-30T04:56:13.439Z,96578.44
2019-04-30T04:58:45.279Z,96579.47
2019-04-30T05:01:20.149Z,96578.37
2019-04-30T05:03:52.330Z,96575.86
2019-04-30T05:06:24.499Z,96582.75
2019-04-30T05:08:57.187Z,96576.47
2019-04-30T05:11:31.549Z,96572.93
2019-04-30T05:14:05.587Z,96582.59
2019-04-30T05:16:38.920Z,96584.30
2019-04-30T05:19:10.718Z,96579.74
2019-04-30T05:21:44.836Z,96576.36
2019-04-30T05:24:16.373Z,96575.72
2019-04-30T05:26:49.126Z,96577.22
2019-04-30T05:29:20.919Z,96575.12
2019-04-30T05:31:52.774Z,96583.95
2019-04-30T05:34:24.620Z,96588.70
2019-04-30T05:36:56.312Z,96585.92
2019-04-30T05:39:29.151Z,96589.01
2019-04-30T05:42:04.098Z,96585.27
2019-04-30T05:44:36.865Z,96581.34
2019-04-30T05:47:10.987Z,96584.70
2019-04-30T05:49:44.169Z,96584.22
2019-04-30T05:52:16.066Z,96578.38
2019-04-30T05:54:48.755Z,96583.12
2019-04-30T05:57:20.721Z,96583.96
2019-04-30T05:59:52.468Z,96590.02
2019-04-30T06:02:24.389Z,96591.98
2019-04-30T06:04:58.784Z,96599.80
2019-04-30T06:07:30.842Z,96593.77
2019-04-30T06:10:16.985Z,96607.00
2019-04-30T06:12:59.337Z,96603.92
2019-04-30T06:15:53.164Z,96602.98
2019-04-30T06:18:25.083Z,96601.73
2019-04-30T06:20:57.065Z,96603.08
2019-04-30T06:23:29.458Z,96606.69
2019-04-30T06:26:09.922Z,96612.58
2019-04-30T06:28:39.028Z,96614.85
2019-04-30T06:31:13.195Z,96614.50
2019-04-30T06:33:45.753Z,96608.77
2019-04-30T06:36:23.702Z,96614.82
2019-04-30T06:38:59.223Z,96614.50
2019-04-30T06:41:31.047Z,96605.50
2019-04-30T06:44:03.040Z,96605.95
2019-04-30T06:46:35.260Z,96608.20
2019-04-30T06:49:09.788Z,96611.28
2019-04-30T06:51:41.599Z,96610.58
2019-04-30T06:54:13.482Z,96618.23
2019-04-30T06:56:45.370Z,96614.95
2019-04-30T06:59:17.206Z,96621.42
2019-04-30T07:01:54.266Z,96625.30
2019-04-30T07:04:26.504Z,96623.77
2019-04-30T07:07:00.108Z,96624.56
2019-04-30T07:09:51.900Z,96633.98
2019-04-30T07:12:27.237Z,96632.18
2019-04-30T07:14:51.947Z,96640.53
2019-04-30T07:17:24.032Z,96640.13
2019-04-30T07:19:56.922Z,96635.40
2019-04-30T07:22:39.790Z,96641.03
2019-04-30T07:25:02.664Z,96632.63
2019-04-30T07:27:40.123Z,96636.86
2019-04-30T07:30:11.576Z,96639.30
2019-04-30T07:32:43.340Z,96639.74
2019-04-30T07:35:15.626Z,96640.94
2019-04-30T07:37:49.480Z,96635.60
2019-04-30T07:40:20.946Z,96638.46
2019-04-30T07:42:52.782Z,96637.91
2019-04-30T07:45:25.701Z,96642.91
2019-04-30T07:47:59.358Z,96631.67
2019-04-30T07:50:32.574Z,96637.66
2019-04-30T07:53:07.019Z,96638.65
2019-04-30T07:55:40.710Z,96644.86
2019-04-30T07:58:12.464Z,96645.56
2019-04-30T08:00:50.181Z,96639.84
2019-04-30T08:03:32.283Z,96653.58
2019-04-30T08:06:06.226Z,96640.98
2019-04-30T08:08:40.943Z,96653.43
2019-04-30T08:11:23.839Z,96651.09
2019-04-30T08:13:49.599Z,96652.20
2019-04-30T08:16:23.519Z,96647.06
2019-04-30T08:18:55.428Z,96645.11
2019-04-30T08:21:28.770Z,96643.45
2019-04-30T08:24:01.077Z,96645.64
2019-04-30T08:26:33.405Z,96639.22
2019-04-30T08:29:05.315Z,96644.31
2019-04-30T08:31:40.654Z,96652.61
2019-04-30T08:34:11.889Z,96649.06
2019-04-30T08:36:43.721Z,96652.05
2019-04-30T08:39:15.488Z,96652.88
2019-04-30T08:41:49.307Z,96650.88
2019-04-30T08:44:21.439Z,96652.80
2019-04-30T08:46:53.592Z,96645.17
2019-04-30T08:49:26.746Z,96650.88
2019-04-30T08:51:58.991Z,96650.66
2019-04-30T08:54:34.572Z,96654.53
2019-04-30T08:57:08.501Z,96648.69
2019-04-30T08:59:40.148Z,96657.92
2019-04-30T09:02:16.110Z,96654.67
2019-04-30T09:04:45.843Z,96653.95
2019-04-30T09:07:19.649Z,96645.38
2019-04-30T09:09:51.442Z,96650.14
2019-04-30T09:12:23.311Z,96654.48
2019-04-30T09:14:56.724Z,96648.41
2019-04-30T09:17:29.721Z,96660.16
2019-04-30T09:20:02.099Z,96655.09
2019-04-30T09:22:34.148Z,96653.99
2019-04-30T09:25:06.135Z,96652.05
2019-04-30T09:27:39.798Z,96643.63
2019-04-30T09:30:11.842Z,96653.00
2019-04-30T09:32:43.515Z,96646.63
2019-04-30T09:35:16.591Z,96647.26
2019-04-30T09:37:49.641Z,96637.95
2019-04-30T09:40:21.911Z,96643.44
2019-04-30T09:42:56.478Z,96652.23
2019-04-30T09:45:28.643Z,96642.22
2019-04-30T09:48:00.518Z,96651.77
2019-04-30T09:50:34.402Z,96649.83
2019-04-30T09:53:06.674Z,96641.20
2019-04-30T09:55:40.517Z,96649.72
2019-04-30T09:58:17.159Z,96649.38
2019-04-30T10:00:46.146Z,96652.30
2019-04-30T10:03:20.165Z,96652.92
2019-04-30T10:05:51.698Z,96648.12
2019-04-30T10:08:24.184Z,96639.27
2019-04-30T10:11:05.454Z,96642.23
2019-04-30T10:13:38.610Z,96634.25
2019-04-30T10:16:29.993Z,96634.93
2019-04-30T10:19:02.228Z,96640.34
2019-04-30T10:21:35.244Z,96632.98
2019-04-30T10:24:13.097Z,96628.02
2019-04-30T10:26:40.625Z,96628.34
2019-04-30T10:29:12.826Z,96628.54
2019-04-30T10:31:44.756Z,96627.86
2019-04-30T10:34:17.705Z,96629.23
2019-04-30T10:36:49.673Z,96629.33
2019-04-30T10:39:21.914Z,96621.13
2019-04-30T10:41:54.177Z,96624.23
2019-04-30T10:44:25.851Z,96622.02
2019-04-30T10:46:59.342Z,96619.41
2019-04-30T10:49:31.263Z,96609.75
2019-04-30T10:52:03.330Z,96613.17
2019-04-30T10:54:35.057Z,96611.19
2019-04-30T10:57:08.559Z,96605.30
2019-04-30T10:59:40.473Z,96605.60
2019-04-30T11:02:12.284Z,96598.48
2019-04-30T11:04:44.405Z,96602.43
2019-04-30T11:07:16.285Z,96596.16
2019-04-30T11:09:49.364Z,96589.46
2019-04-30T11:12:21.195Z,96601.80
2019-04-30T11:14:52.849Z,96595.52
2019-04-30T11:17:24.876Z,96588.47
2019-04-30T11:19:59.185Z,96592.03
2019-04-30T11:22:32.905Z,96579.42
2019-04-30T11:25:05.080Z,96580.52
2019-04-30T11:27:40.802Z,96575.02
2019-04-30T11:30:23.348Z,96575.20
2019-04-30T11:32:48.048Z,96567.38
2019-04-30T11:35:29.672Z,96562.63
2019-04-30T11:38:01.286Z,96565.28
2019-04-30T11:40:39.285Z,96558.22
2019-04-30T11:43:08.177Z,96560.89
2019-04-30T11:46:08.679Z,96558.41
2019-04-30T11:48:40.645Z,96546.19
2019-04-30T11:51:12.555Z,96552.67
2019-04-30T11:53:44.251Z,96547.78
2019-04-30T11:56:16.153Z,96547.77
2019-04-30T11:58:48.913Z,96547.30
2019-04-30T12:01:23.057Z,96540.13
2019-04-30T12:03:54.961Z,96539.59
2019-04-30T12:06:28.454Z,96529.44
2019-04-30T12:09:31.177Z,96529.09
2019-04-30T12:12:04.842Z,96525.39
2019-04-30T12:14:36.555Z,96514.56
2019-04-30T12:17:08.249Z,96516.48
2019-04-30T12:19:40.209Z,96509.63
2019-04-30T12:22:12.135Z,96501.11
2019-04-30T12:24:43.805Z,96494.11
2019-04-30T12:27:15.551Z,96493.66
2019-04-30T12:29:49.464Z,96479.87
2019-04-30T12:32:22.049Z,96480.66
2019-04-30T12:34:53.743Z,96479.59
2019-04-30T12:37:25.365Z,96482.55
2019-04-30T12:39:59.381Z,96480.91
2019-04-30T12:42:31.125Z,96480.84
2019-04-30T12:45:03.184Z,96469.77
2019-04-30T12:47:39.806Z,96470.78
2019-04-30T12:50:19.520Z,96466.66
2019-04-30T12:52:59.465Z,96463.98
2019-04-30T12:55:55.992Z,96450.47
2019-04-30T12:58:29.192Z,96441.55
2019-04-30T13:01:01.102Z,96439.86
2019-04-30T13:03:33.350Z,96429.38
2019-04-30T13:06:06.884Z,96422.20
2019-04-30T13:08:40.556Z,96415.84
2019-04-30T13:11:13.647Z,96417.97
2019-04-30T13:13:46.369Z,96410.85
2019-04-30T13:16:19.947Z,96408.66
2019-04-30T13:18:51.703Z,96408.03
2019-04-30T13:21:23.784Z,96405.14
2019-04-30T13:23:58.199Z,96402.39
2019-04-30T13:26:30.021Z,96404.78
2019-04-30T13:29:06.994Z,96402.52
2019-04-30T13:31:40.270Z,96397.39
2019-04-30T13:34:33.604Z,96390.27
2019-04-30T13:37:09.288Z,96392.42
2019-04-30T13:39:52.263Z,96387.14
2019-04-30T13:42:29.238Z,96389.84
2019-04-30T13:45:00.923Z,96382.47
2019-04-30T13:47:33.093Z,96378.13
2019-04-30T13:50:05.718Z,96378.59
2019-04-30T13:52:40.301Z,96383.64
2019-04-30T13:55:13.110Z,96380.13
2019-04-30T13:57:45.320Z,96377.06
2019-04-30T14:00:21.961Z,96377.45
2019-04-30T14:03:06.493Z,96374.35
2019-04-30T14:05:40.292Z,96368.13
2019-04-30T14:08:24.796Z,96358.39
2019-04-30T14:10:59.204Z,96355.63
2019-04-30T14:13:43.176Z,96358.36
2019-04-30T14:16:16.158Z,96352.73
2019-04-30T14:18:48.748Z,96354.13
2019-04-30T14:21:32.212Z,96357.71
2019-04-30T14:23:54.499Z,96354.90
2019-04-30T14:26:26.371Z,96358.93
2019-04-30T14:29:00.104Z,96347.77
2019-04-30T14:31:32.776Z,96340.88
2019-04-30T14:34:04.803Z,96343.95
2019-04-30T14:36:36.832Z,96339.90
2019-04-30T14:39:16.123Z,96351.31
2019-04-30T14:41:43.818Z,96338.20
2019-04-30T14:44:20.972Z,96336.95
2019-04-30T14:47:11.648Z,96333.84
2019-04-30T14:50:01.609Z,96332.79
2019-04-30T14:52:34.437Z,96334.25
2019-04-30T14:55:18.731Z,96340.86
2019-04-30T14:58:09.713Z,96337.73
2019-04-30T15:01:07.075Z,96339.53
2019-04-30T15:03:40.798Z,96339.75
2019-04-30T15:06:12.411Z,96344.73
2019-04-30T15:08:45.088Z,96337.74
2019-04-30T15:11:18.902Z,96341.08
2019-04-30T15:13:50.458Z,96333.20
2019-04-30T15:16:22.514Z,96334.34
2019-04-30T15:18:54.143Z,96331.10
2019-04-30T15:21:28.160Z,96341.44
2019-04-30T15:24:19.280Z,96343.69
2019-04-30T15:26:57.672Z,96333.84
2019-04-30T15:29:24.593Z,96344.91
2019-04-30T15:31:56.481Z,96346.09
2019-04-30T15:34:29.359Z,96351.49
2019-04-30T15:37:01.367Z,96349.73
2019-04-30T15:39:39.289Z,96353.54
2019-04-30T15:42:13.273Z,96356.66
2019-04-30T15:44:45.954Z,96354.36
2019-04-30T15:47:18.954Z,96357.80
2019-04-30T15:49:54.563Z,96355.43
2019-04-30T15:52:26.516Z,96342.55
2019-04-30T15:54:59.241Z,96354.78
2019-04-30T15:57:31.270Z,96355.96
2019-04-30T16:00:05.498Z,96363.67
2019-04-30T16:02:56.213Z,96367.64
2019-04-30T16:05:39.856Z,96362.92
2019-04-30T16:08:34.224Z,96372.73
2019-04-30T16:11:26.311Z,96390.05
2019-04-30T16:14:14.972Z,96438.92
2019-04-30T16:16:51.879Z,96436.98
2019-04-30T16:19:23.631Z,96427.97
2019-04-30T16:21:55.303Z,96437.02
2019-04-30T16:24:28.746Z,96429.73
2019-04-30T16:27:00.726Z,96430.03
2019-04-30T16:29:32.747Z,96440.77
2019-04-30T16:32:04.846Z,96447.50
2019-04-30T16:34:38.946Z,96455.72
2019-04-30T16:37:11.834Z,96448.81
2019-04-30T16:39:43.826Z,96453.30
2019-04-30T16:42:15.546Z,96453.99
2019-04-30T16:44:47.855Z,96466.24
2019-04-30T16:47:20.025Z,96466.09
2019-04-30T16:49:51.732Z,96460.84
2019-04-30T16:52:25.788Z,96469.66
2019-04-30T16:54:57.892Z,96478.45
2019-04-30T16:57:30.974Z,96475.85
2019-04-30T17:00:03.469Z,96476.16
2019-04-30T17:02:39.336Z,96475.68
2019-04-30T17:05:30.196Z,96488.37
2019-04-30T17:08:09.994Z,96487.54
2019-04-30T17:11:03.203Z,96488.81
2019-04-30T17:13:40.189Z,96481.30
2019-04-30T17:16:14.988Z,96491.73
2019-04-30T17:18:46.435Z,96489.47
2019-04-30T17:21:19.700Z,96493.51
2019-04-30T17:23:51.493Z,96497.40
2019-04-30T17:26:23.425Z,96499.03
2019-04-30T17:28:55.109Z,96500.46
2019-04-30T17:31:26.761Z,96508.29
2019-04-30T17:33:58.318Z,96501.77
2019-04-30T17:36:29.862Z,96505.83
2019-04-30T17:39:01.522Z,96514.77
2019-04-30T17:41:35.040Z,96518.14
2019-04-30T17:44:08.785Z,96528.95
2019-04-30T17:46:40.276Z,96527.49
2019-04-30T17:49:11.827Z,96537.92
2019-04-30T17:51:43.414Z,96532.01
2019-04-30T17:54:15.289Z,96529.51
2019-04-30T17:56:48.430Z,96523.72
2019-04-30T17:59:21.071Z,96525.84
2019-04-30T18:01:59.630Z,96522.34
2019-04-30T18:04:32.086Z,96533.72
2019-04-30T18:07:03.705Z,96532.42
2019-04-30T18:09:36.123Z,96531.44
2019-04-30T18:12:09.414Z,96530.58
2019-04-30T18:14:41.195Z,96541.03
2019-04-30T18:17:15.721Z,96545.72
2019-04-30T18:19:57.101Z,96550.05
2019-04-30T18:22:45.517Z,96554.77
2019-04-30T18:25:31.477Z,96553.67
2019-04-30T18:28:03.206Z,96561.94
2019-04-30T18:30:39.089Z,96562.33
2019-04-30T18:33:10.854Z,96566.78
2019-04-30T18:35:43.394Z,96574.22
2019-04-30T18:38:17.661Z,96577.27
2019-04-30T18:40:49.559Z,96578.73
2019-04-30T18:43:22.358Z,96582.33
2019-04-30T18:45:54.063Z,96579.94
2019-04-30T18:48:25.559Z,96584.61
2019-04-30T18:50:57.186Z,96585.30
2019-04-30T18:53:30.520Z,96598.66
2019-04-30T18:56:08.966Z,96601.13
2019-04-30T18:58:42.796Z,96606.45
2019-04-30T19:01:12.797Z,96599.63
2019-04-30T19:03:44.297Z,96598.66
2019-04-30T19:06:23.706Z,96595.06
2019-04-30T19:09:14.487Z,96597.05
2019-04-30T19:11:59.360Z,96601.19
2019-04-30T19:14:49.688Z,96603.12
2019-04-30T19:17:39.389Z,96607.16
2019-04-30T19:20:19.167Z,96613.34
2019-04-30T19:22:50.661Z,96604.95
2019-04-30T19:25:22.091Z,96604.59
2019-04-30T19:27:53.716Z,96607.69
2019-04-30T19:30:25.963Z,96613.61
2019-04-30T19:32:58.914Z,96614.33
2019-04-30T19:35:30.945Z,96612.73
2019-04-30T19:38:02.591Z,96616.77
2019-04-30T19:40:34.936Z,96619.48
2019-04-30T19:43:06.479Z,96615.63
2019-04-30T19:45:38.403Z,96612.81
2019-04-30T19:48:09.979Z,96619.22
2019-04-30T19:50:41.447Z,96621.81
2019-04-30T19:53:13.001Z,96633.02
2019-04-30T19:55:44.535Z,96630.98
2019-04-30T19:58:26.259Z,96631.83
2019-04-30T20:00:53.635Z,96630.94
2019-04-30T20:03:25.260Z,96626.38
2019-04-30T20:05:58.608Z,96631.20
2019-04-30T20:08:30.528Z,96625.48
2019-04-30T20:11:02.845Z,96622.53
2019-04-30T20:13:37.134Z,96625.55
2019-04-30T20:16:09.633Z,96632.34
2019-04-30T20:18:41.000Z,96628.41
2019-04-30T20:21:26.251Z,96632.82
2019-04-30T20:23:50.072Z,96631.41
2019-04-30T20:26:21.826Z,96628.70
2019-04-30T20:28:56.382Z,96632.03
2019-04-30T20:31:28.783Z,96637.95
2019-04-30T20:34:01.614Z,96637.07
2019-04-30T20:36:33.774Z,96642.67
2019-04-30T20:39:21.269Z,96636.81
2019-04-30T20:41:54.356Z,96626.02
2019-04-30T20:44:26.278Z,96618.38
2019-04-30T20:46:59.097Z,96609.34
2019-04-30T20:49:30.617Z,96614.95
2019-04-30T20:52:02.334Z,96613.12
2019-04-30T20:54:34.113Z,96611.88
2019-04-30T20:57:05.621Z,96621.50
2019-04-30T20:59:38.772Z,96626.21
2019-04-30T21:02:10.829Z,96623.56
2019-04-30T21:04:42.582Z,96619.00
2019-04-30T21:07:14.232Z,96617.61
2019-04-30T21:09:46.035Z,96618.86
2019-04-30T21:12:18.873Z,96621.60
2019-04-30T21:14:50.555Z,96618.31
2019-04-30T21:17:22.093Z,96619.31
2019-04-30T21:19:56.519Z,96614.17
2019-04-30T21:22:29.616Z,96606.69
2019-04-30T21:25:01.371Z,96616.51
2019-04-30T21:27:33.571Z,96622.27
2019-04-30T21:30:05.519Z,96609.92
2019-04-30T21:32:55.198Z,96612.66
2019-04-30T21:35:38.670Z,96607.88
2019-04-30T21:38:10.293Z,96598.89
2019-04-30T21:40:44.051Z,96600.39
2019-04-30T21:43:15.263Z,96596.30
2019-04-30T21:45:46.857Z,96604.55
2019-04-30T21:48:19.176Z,96603.73
2019-04-30T21:50:51.432Z,96600.23
2019-04-30T21:53:22.910Z,96608.55
2019-04-30T21:55:54.424Z,96606.20
2019-04-30T21:58:25.918Z,96615.02
2019-04-30T22:01:25.346Z,96615.89
2019-04-30T22:03:57.003Z,96618.44
2019-04-30T22:06:29.558Z,96617.26
2019-04-30T22:09:01.179Z,96613.72
2019-04-30T22:11:34.248Z,96613.41
2019-04-30T22:14:05.854Z,96616.20
2019-04-30T22:16:39.632Z,96614.66
2019-04-30T22:19:10.618Z,96624.80
2019-04-30T22:21:42.137Z,96610.40
2019-04-30T22:24:13.561Z,96614.22
2019-04-30T22:26:45.115Z,96611.25
2019-04-30T22:29:16.524Z,96618.31
2019-04-30T22:31:49.452Z,96615.31
2019-04-30T22:34:21.210Z,96623.00
2019-04-30T22:36:53.119Z,96622.00
2019-04-30T22:39:32.357Z,96616.23
2019-04-30T22:42:39.792Z,96616.46
2019-04-30T22:45:21.187Z,96621.48
2019-04-30T22:47:52.778Z,96611.37
2019-04-30T22:50:24.394Z,96597.71
2019-04-30T22:52:55.804Z,96604.47
2019-04-30T22:55:27.308Z,96597.73
2019-04-30T22:57:58.833Z,96603.34
2019-04-30T23:00:41.729Z,96605.62
2019-04-30T23:03:17.519Z,96605.92
2019-04-30T23:05:49.176Z,96601.82
2019-04-30T23:08:20.681Z,96602.59
2019-04-30T23:10:52.148Z,96586.87
2019-04-30T23:13:23.717Z,96590.18
2019-04-30T23:15:56.587Z,96596.16
2019-04-30T23:18:28.304Z,96591.24
2019-04-30T23:20:59.794Z,96595.48
2019-04-30T23:23:31.300Z,96590.91
2019-04-30T23:26:02.843Z,96596.74
2019-04-30T23:28:34.474Z,96604.08
2019-04-30T23:31:06.144Z,96603.27
2019-04-30T23:33:37.727Z,96601.02
2019-04-30T23:36:09.241Z,96602.27
2019-04-30T23:38:40.677Z,96599.26
2019-04-30T23:41:12.181Z,96597.28
2019-04-30T23:43:43.686Z,96593.86
2019-04-30T23:46:15.226Z,96591.97
2019-04-30T23:48:46.760Z,96591.22
2019-04-30T23:51:18.862Z,96592.02
2019-04-30T23:53:50.808Z,96592.02
2019-04-30T23:56:22.350Z,96594.83
2019-04-30T23:58:54.402Z,96592.30
